Time;durP1;ratioP1;P1;durP2;ratioP2;P2;SDS_P1;SDS_P2;PMS_P1;PMS_P2;Temp;Humidity;BMP_temperature;BMP_pressure;BME280_temperature;BME280_humidity;BME280_pressure;Samples;Min_cycle;Max_cycle;Signal;HPM_P1;HPM_P2
2023/04/24 00:01:44;;;;;;;2.63;2.25;;;9.20;99.90;;;;;;5027307;28;20033;-68
2023/04/24 00:04:10;;;;;;;3.05;2.30;;;9.20;99.90;;;;;;5028025;28;20557;-68
2023/04/24 00:06:38;;;;;;;3.60;2.67;;;9.20;99.90;;;;;;5004000;28;20033;-68
2023/04/24 00:09:04;;;;;;;4.38;3.15;;;9.10;99.90;;;;;;5028173;28;20077;-68
2023/04/24 00:11:30;;;;;;;3.72;2.88;;;9.10;99.90;;;;;;4994803;28;20128;-68
2023/04/24 00:13:57;;;;;;;4.00;3.30;;;9.10;99.90;;;;;;5011271;28;20425;-68
2023/04/24 00:16:23;;;;;;;4.72;3.67;;;9.10;99.90;;;;;;5027581;28;20041;-68
2023/04/24 00:18:48;;;;;;;5.65;4.00;;;9.10;99.90;;;;;;5027157;28;20107;-68
2023/04/24 00:21:17;;;;;;;4.93;4.22;;;9.10;99.90;;;;;;5009911;28;20045;-68
2023/04/24 00:23:43;;;;;;;5.38;4.28;;;9.10;99.90;;;;;;5027900;28;20068;-68
2023/04/24 00:26:10;;;;;;;6.63;4.78;;;9.00;99.90;;;;;;5025517;28;20110;-68
2023/04/24 00:28:35;;;;;;;6.25;5.05;;;9.00;99.90;;;;;;5027800;28;20072;-68
2023/04/24 00:31:01;;;;;;;6.50;4.82;;;9.00;99.90;;;;;;5044729;28;20064;-68
2023/04/24 00:33:27;;;;;;;5.70;4.38;;;9.00;99.90;;;;;;5011130;28;20041;-68
2023/04/24 00:35:53;;;;;;;5.75;4.45;;;9.00;99.90;;;;;;5024732;28;20552;-68
2023/04/24 00:38:19;;;;;;;6.03;3.88;;;9.00;99.90;;;;;;5027921;28;20084;-68
2023/04/24 00:40:44;;;;;;;12.98;4.63;;;9.00;99.90;;;;;;5026824;28;20056;-68
2023/04/24 00:43:11;;;;;;;5.25;3.90;;;9.00;99.90;;;;;;5026870;28;20045;-68
2023/04/24 00:45:37;;;;;;;5.20;4.13;;;8.90;99.90;;;;;;5009105;28;20033;-69
2023/04/24 00:48:04;;;;;;;4.63;3.15;;;8.90;99.90;;;;;;5044679;28;20384;-69
2023/04/24 00:50:31;;;;;;;4.50;3.30;;;9.00;99.90;;;;;;5045438;28;20087;-68
2023/04/24 00:52:57;;;;;;;6.45;3.40;;;9.00;99.90;;;;;;5007035;28;20044;-68
2023/04/24 00:55:22;;;;;;;3.30;2.80;;;8.90;99.90;;;;;;5045636;28;20029;-67
2023/04/24 00:57:49;;;;;;;3.75;2.50;;;8.90;99.90;;;;;;4981540;28;20060;-68
2023/04/24 01:00:16;;;;;;;3.05;2.63;;;8.80;99.90;;;;;;5030959;28;20045;-69
2023/04/24 01:02:44;;;;;;;3.72;2.60;;;8.80;99.90;;;;;;5013270;28;20033;-68
2023/04/24 01:05:12;;;;;;;3.00;2.40;;;8.80;99.90;;;;;;5034336;28;20033;-68
2023/04/24 01:07:40;;;;;;;3.75;2.58;;;8.80;99.90;;;;;;5016840;28;20041;-69
2023/04/24 01:10:08;;;;;;;3.60;3.30;;;8.80;99.90;;;;;;5013475;28;20135;-68
2023/04/24 01:12:34;;;;;;;4.22;3.40;;;8.70;99.90;;;;;;5027277;28;20041;-69
2023/04/24 01:14:59;;;;;;;4.15;3.28;;;8.70;99.90;;;;;;5013510;28;20060;-69
2023/04/24 01:17:25;;;;;;;3.90;3.50;;;8.70;99.90;;;;;;5012954;28;20091;-68
2023/04/24 01:19:56;;;;;;;3.95;3.50;;;8.70;99.90;;;;;;5001210;28;20037;-70
2023/04/24 01:22:22;;;;;;;4.28;3.65;;;8.70;99.90;;;;;;5047007;28;20064;-69
2023/04/24 01:24:48;;;;;;;5.32;3.83;;;8.70;99.90;;;;;;5034376;28;20068;-69
2023/04/24 01:27:14;;;;;;;5.60;4.15;;;8.70;99.90;;;;;;5014761;28;20137;-69
2023/04/24 01:29:40;;;;;;;5.20;3.63;;;8.70;99.90;;;;;;5018108;28;20044;-69
2023/04/24 01:32:06;;;;;;;5.80;4.38;;;8.60;99.90;;;;;;5017546;28;20086;-69
2023/04/24 01:34:33;;;;;;;6.65;4.50;;;8.70;99.90;;;;;;5046289;28;20042;-69
2023/04/24 01:36:59;;;;;;;6.20;4.10;;;8.70;99.90;;;;;;5051804;28;20472;-69
2023/04/24 01:39:25;;;;;;;6.75;4.15;;;8.60;99.90;;;;;;5029700;28;20132;-69
2023/04/24 01:41:52;;;;;;;5.15;4.47;;;8.60;99.90;;;;;;5027140;28;20056;-69
2023/04/24 01:44:18;;;;;;;5.53;3.83;;;8.60;99.90;;;;;;5013335;28;20139;-69
2023/04/24 01:46:44;;;;;;;6.82;4.70;;;8.60;99.90;;;;;;4996342;28;20056;-69
2023/04/24 01:49:10;;;;;;;5.60;4.50;;;8.60;99.90;;;;;;5029993;28;20040;-69
2023/04/24 01:51:36;;;;;;;8.73;5.13;;;8.60;99.90;;;;;;5012954;28;20474;-69
2023/04/24 01:54:02;;;;;;;5.88;4.88;;;8.60;99.90;;;;;;5012467;28;20033;-69
2023/04/24 01:56:30;;;;;;;8.10;5.78;;;8.60;99.90;;;;;;5027586;28;20083;-68
2023/04/24 01:58:57;;;;;;;10.10;6.43;;;8.60;99.90;;;;;;5028466;28;20136;-69
2023/04/24 02:01:24;;;;;;;8.98;6.80;;;8.60;99.90;;;;;;5010922;28;20078;-69
2023/04/24 02:03:50;;;;;;;10.98;6.63;;;8.60;99.90;;;;;;5010847;28;20049;-69
2023/04/24 02:06:16;;;;;;;10.32;7.00;;;8.60;99.90;;;;;;5007438;28;20037;-69
2023/04/24 02:08:42;;;;;;;11.90;7.15;;;8.60;99.90;;;;;;5028498;28;20048;-69
2023/04/24 02:11:11;;;;;;;9.52;7.22;;;8.60;99.90;;;;;;5028404;28;20033;-69
2023/04/24 02:13:36;;;;;;;10.10;6.00;;;8.60;99.90;;;;;;5030025;28;20029;-68
2023/04/24 02:16:02;;;;;;;11.82;7.95;;;8.60;99.90;;;;;;5011851;28;20052;-69
2023/04/24 02:18:28;;;;;;;12.98;7.78;;;8.60;99.90;;;;;;5012697;28;20037;-68
2023/04/24 02:20:54;;;;;;;10.48;7.68;;;8.60;99.90;;;;;;5028269;28;20098;-68
2023/04/24 02:23:20;;;;;;;11.30;8.07;;;8.60;99.90;;;;;;5025740;28;20041;-68
2023/04/24 02:25:45;;;;;;;14.90;8.40;;;8.60;99.90;;;;;;5029554;28;20045;-68
2023/04/24 02:28:11;;;;;;;10.02;7.32;;;8.60;99.90;;;;;;5012776;28;20040;-69
2023/04/24 02:30:37;;;;;;;10.00;7.40;;;8.60;99.90;;;;;;5012014;28;20490;-68
2023/04/24 02:33:03;;;;;;;10.48;6.90;;;8.70;99.90;;;;;;5025408;28;20401;-69
2023/04/24 02:35:29;;;;;;;11.50;7.43;;;8.70;99.90;;;;;;5047739;28;20086;-68
2023/04/24 02:37:55;;;;;;;9.60;6.65;;;8.60;99.90;;;;;;5028398;28;20052;-68
2023/04/24 02:40:20;;;;;;;11.02;7.03;;;8.70;99.90;;;;;;5028482;28;20045;-68
2023/04/24 02:42:46;;;;;;;9.77;6.90;;;8.70;99.90;;;;;;5028258;28;20448;-68
2023/04/24 02:45:12;;;;;;;9.50;6.90;;;8.60;99.90;;;;;;5026703;28;20036;-68
2023/04/24 02:47:38;;;;;;;9.95;6.72;;;8.70;99.90;;;;;;5028305;28;20033;-68
2023/04/24 02:50:04;;;;;;;10.02;7.35;;;8.60;99.90;;;;;;5027693;28;20061;-68
2023/04/24 02:52:30;;;;;;;10.82;7.03;;;8.70;99.90;;;;;;5008897;28;20033;-68
2023/04/24 02:54:55;;;;;;;15.10;7.57;;;8.60;99.90;;;;;;5028142;28;20048;-68
2023/04/24 02:57:21;;;;;;;7.97;6.28;;;8.60;99.90;;;;;;5027660;28;20514;-68
2023/04/24 02:59:47;;;;;;;8.95;6.15;;;8.60;99.90;;;;;;5023363;28;20124;-68
2023/04/24 03:02:13;;;;;;;10.27;7.30;;;8.60;99.90;;;;;;5026691;28;20104;-68
2023/04/24 03:04:39;;;;;;;9.50;6.65;;;8.60;99.90;;;;;;5028813;28;20124;-68
2023/04/24 03:07:05;;;;;;;9.70;6.47;;;8.50;99.90;;;;;;5027032;28;20052;-68
2023/04/24 03:09:31;;;;;;;10.38;6.28;;;8.50;99.90;;;;;;5027057;28;20045;-68
2023/04/24 03:11:58;;;;;;;8.82;6.35;;;8.50;99.90;;;;;;5011682;28;20584;-68
2023/04/24 03:14:23;;;;;;;14.88;6.78;;;8.40;99.90;;;;;;5027379;28;20443;-68
2023/04/24 03:16:50;;;;;;;9.50;6.30;;;8.40;99.90;;;;;;5010574;28;20037;-68
2023/04/24 03:19:15;;;;;;;9.88;6.55;;;8.40;99.90;;;;;;5027829;28;20175;-68
2023/04/24 03:21:41;;;;;;;9.13;6.43;;;8.40;99.90;;;;;;5045102;28;20123;-69
2023/04/24 03:24:08;;;;;;;10.02;6.70;;;8.40;99.90;;;;;;5027889;28;20059;-68
2023/04/24 03:26:34;;;;;;;9.25;6.20;;;8.40;99.90;;;;;;5010470;28;20406;-68
2023/04/24 03:29:00;;;;;;;10.55;6.13;;;8.40;99.90;;;;;;5045545;28;20033;-68
2023/04/24 03:31:26;;;;;;;13.25;6.53;;;8.40;99.90;;;;;;5028398;28;20130;-68
2023/04/24 03:33:52;;;;;;;8.75;6.75;;;8.40;99.90;;;;;;5026770;28;20420;-68
2023/04/24 03:36:19;;;;;;;8.52;6.22;;;8.30;99.90;;;;;;5011572;28;20576;-68
2023/04/24 03:38:45;;;;;;;8.68;6.75;;;8.40;99.90;;;;;;5027591;28;20037;-68
2023/04/24 03:41:11;;;;;;;8.95;6.38;;;8.30;99.90;;;;;;4995000;28;20033;-68
2023/04/24 03:43:37;;;;;;;10.38;7.07;;;8.30;99.90;;;;;;5027279;28;20138;-68
2023/04/24 03:46:03;;;;;;;10.07;7.05;;;8.30;99.90;;;;;;5024709;28;20033;-69
2023/04/24 03:48:29;;;;;;;12.32;6.65;;;8.30;99.90;;;;;;5027880;28;20052;-68
2023/04/24 03:50:55;;;;;;;11.73;7.60;;;8.30;99.90;;;;;;5027044;28;20041;-68
2023/04/24 03:53:21;;;;;;;12.05;8.00;;;8.30;99.90;;;;;;5025381;28;21213;-68
2023/04/24 03:55:47;;;;;;;10.07;7.32;;;8.30;99.90;;;;;;5027850;28;20045;-68
2023/04/24 03:58:15;;;;;;;12.32;7.78;;;8.30;99.90;;;;;;5027211;28;20060;-68
2023/04/24 04:00:41;;;;;;;11.00;7.60;;;8.30;99.90;;;;;;5027911;28;20036;-68
2023/04/24 04:03:07;;;;;;;9.95;7.45;;;8.30;99.90;;;;;;5027432;28;20041;-68
2023/04/24 04:05:32;;;;;;;10.85;7.68;;;8.30;99.90;;;;;;5027379;28;20041;-68
2023/04/24 04:07:58;;;;;;;13.07;6.88;;;8.30;99.90;;;;;;5010323;28;20041;-68
2023/04/24 04:10:24;;;;;;;11.75;7.65;;;8.30;99.90;;;;;;5011249;28;20488;-68
2023/04/24 04:12:49;;;;;;;9.65;7.10;;;8.30;99.90;;;;;;5009142;28;20117;-68
2023/04/24 04:15:15;;;;;;;11.95;7.07;;;8.30;99.90;;;;;;5010170;28;20048;-68
2023/04/24 04:17:41;;;;;;;10.02;6.85;;;8.30;99.90;;;;;;5010699;28;20090;-68
2023/04/24 04:20:09;;;;;;;10.23;6.75;;;8.40;99.90;;;;;;5027995;28;20041;-68
2023/04/24 04:22:36;;;;;;;10.85;6.50;;;8.40;99.90;;;;;;5024827;28;20265;-68
2023/04/24 04:25:03;;;;;;;9.65;6.10;;;8.40;99.90;;;;;;5010492;28;20061;-68
2023/04/24 04:27:31;;;;;;;9.15;6.45;;;8.40;99.90;;;;;;5030950;28;20438;-68
2023/04/24 04:30:01;;;;;;;9.13;6.35;;;8.30;99.90;;;;;;5015331;28;20032;-68
2023/04/24 04:32:26;;;;;;;9.80;6.47;;;8.30;99.90;;;;;;5013281;28;20033;-68
2023/04/24 04:34:53;;;;;;;9.60;6.82;;;8.30;99.90;;;;;;5030936;28;20047;-69
2023/04/24 04:37:19;;;;;;;8.90;6.30;;;8.40;99.90;;;;;;5030855;28;20246;-68
2023/04/24 04:39:44;;;;;;;11.07;7.18;;;8.30;99.90;;;;;;4997381;28;20503;-68
2023/04/24 04:42:10;;;;;;;10.20;7.20;;;8.40;99.90;;;;;;5031764;28;20033;-68
2023/04/24 04:44:36;;;;;;;13.15;7.93;;;8.30;99.90;;;;;;5012511;28;20651;-68
2023/04/24 04:47:05;;;;;;;12.13;7.32;;;8.30;99.90;;;;;;5028516;28;20474;-68
2023/04/24 04:49:31;;;;;;;11.98;8.13;;;8.30;99.90;;;;;;5013020;28;20916;-68
2023/04/24 04:51:57;;;;;;;12.95;8.27;;;8.30;99.90;;;;;;5014986;28;20033;-68
2023/04/24 04:54:23;;;;;;;11.55;7.45;;;8.30;99.90;;;;;;5044875;28;20130;-68
2023/04/24 04:56:50;;;;;;;11.63;7.68;;;8.30;99.90;;;;;;4995767;28;20053;-68
2023/04/24 04:59:16;;;;;;;11.05;7.38;;;8.30;99.90;;;;;;5013116;28;20057;-68
2023/04/24 05:01:42;;;;;;;11.98;7.53;;;8.30;99.90;;;;;;5027778;28;20075;-68
2023/04/24 05:04:07;;;;;;;12.75;8.23;;;8.30;99.90;;;;;;5030624;28;20067;-68
2023/04/24 05:06:33;;;;;;;11.20;6.82;;;8.30;99.90;;;;;;4994170;28;20071;-69
2023/04/24 05:08:59;;;;;;;12.50;7.60;;;8.30;99.90;;;;;;5027713;28;20049;-68
2023/04/24 05:11:24;;;;;;;10.05;6.63;;;8.30;99.90;;;;;;5047644;28;20037;-68
2023/04/24 05:13:50;;;;;;;10.68;7.07;;;8.30;99.90;;;;;;5027719;28;20041;-68
2023/04/24 05:16:16;;;;;;;11.00;7.53;;;8.30;99.90;;;;;;5013394;28;20065;-68
2023/04/24 05:18:42;;;;;;;11.18;7.10;;;8.40;99.90;;;;;;4996021;28;20072;-68
2023/04/24 05:21:07;;;;;;;11.07;7.63;;;8.40;99.90;;;;;;4994811;28;20120;-68
2023/04/24 05:23:33;;;;;;;11.20;7.38;;;8.40;99.90;;;;;;5027129;28;20033;-68
2023/04/24 05:25:59;;;;;;;11.27;6.68;;;8.40;99.90;;;;;;5028766;28;20593;-68
2023/04/24 05:28:28;;;;;;;10.55;7.57;;;8.40;99.90;;;;;;5028601;28;20041;-68
2023/04/24 05:30:55;;;;;;;10.10;7.15;;;8.50;99.90;;;;;;5027517;28;20033;-68
2023/04/24 05:33:22;;;;;;;8.40;6.00;;;8.40;99.90;;;;;;5027536;28;20408;-68
2023/04/24 05:35:48;;;;;;;11.57;6.43;;;8.50;99.90;;;;;;5011911;28;20045;-67
2023/04/24 05:38:17;;;;;;;7.93;5.45;;;8.50;99.90;;;;;;5028834;28;20033;-68
2023/04/24 05:40:43;;;;;;;9.05;5.93;;;8.50;99.90;;;;;;5027946;28;21033;-68
2023/04/24 05:43:09;;;;;;;8.95;5.63;;;8.50;99.90;;;;;;5009132;28;20076;-68
2023/04/24 05:45:35;;;;;;;6.20;4.95;;;8.50;99.90;;;;;;5028289;28;20084;-68
2023/04/24 05:48:02;;;;;;;6.03;4.75;;;8.50;99.90;;;;;;5026858;28;20052;-68
2023/04/24 05:50:28;;;;;;;6.57;4.45;;;8.50;99.90;;;;;;5010867;28;20116;-68
2023/04/24 05:52:53;;;;;;;7.82;4.43;;;8.50;99.90;;;;;;4994777;28;20128;-67
2023/04/24 05:55:19;;;;;;;4.53;3.78;;;8.60;99.90;;;;;;5028652;28;20114;-68
2023/04/24 05:57:45;;;;;;;5.50;3.38;;;8.60;99.90;;;;;;5025370;28;20187;-68
2023/04/24 06:00:12;;;;;;;7.75;4.55;;;8.60;99.90;;;;;;4994634;28;20041;-68
2023/04/24 06:02:38;;;;;;;5.97;4.60;;;8.60;99.90;;;;;;5012209;28;20037;-68
2023/04/24 06:05:04;;;;;;;5.88;4.18;;;8.60;99.90;;;;;;4996286;28;20486;-68
2023/04/24 06:07:31;;;;;;;5.90;4.20;;;8.60;99.90;;;;;;5011813;28;20064;-68
2023/04/24 06:09:56;;;;;;;6.85;4.55;;;8.60;99.90;;;;;;5028160;28;20045;-68
2023/04/24 06:12:22;;;;;;;5.40;3.83;;;8.60;99.90;;;;;;5027449;28;20128;-68
2023/04/24 06:14:48;;;;;;;6.43;4.30;;;8.50;99.90;;;;;;5012259;28;20083;-68
2023/04/24 06:17:15;;;;;;;6.40;4.07;;;8.50;99.90;;;;;;5010093;28;20036;-68
2023/04/24 06:19:41;;;;;;;5.60;4.15;;;8.50;99.90;;;;;;5027305;28;20076;-68
2023/04/24 06:22:07;;;;;;;5.07;3.70;;;8.60;99.90;;;;;;5027050;28;20084;-68
2023/04/24 06:24:34;;;;;;;4.85;3.42;;;8.50;99.90;;;;;;5012635;28;20040;-68
2023/04/24 06:27:01;;;;;;;6.10;3.50;;;8.50;99.90;;;;;;5026332;28;20037;-68
2023/04/24 06:29:27;;;;;;;4.53;3.58;;;8.50;99.90;;;;;;5026673;28;20053;-68
2023/04/24 06:31:53;;;;;;;4.57;2.83;;;8.50;99.90;;;;;;5010386;28;20069;-68
2023/04/24 06:34:18;;;;;;;3.55;2.40;;;8.50;99.90;;;;;;5028887;28;20094;-68
2023/04/24 06:36:44;;;;;;;4.05;3.17;;;8.40;99.90;;;;;;5007385;28;20402;-68
2023/04/24 06:39:10;;;;;;;3.53;2.80;;;8.40;99.90;;;;;;5032860;28;20045;-68
2023/04/24 06:41:35;;;;;;;4.80;2.75;;;8.40;99.90;;;;;;5016266;28;20033;-68
2023/04/24 06:44:01;;;;;;;4.07;2.60;;;8.40;99.90;;;;;;5000205;28;20091;-69
2023/04/24 06:46:27;;;;;;;4.50;2.95;;;8.50;99.90;;;;;;5032467;28;20037;-68
2023/04/24 06:48:56;;;;;;;3.95;2.88;;;8.40;99.90;;;;;;5015512;28;20095;-68
2023/04/24 06:51:24;;;;;;;3.72;3.03;;;8.40;99.90;;;;;;5031898;28;20041;-69
2023/04/24 06:53:49;;;;;;;3.67;2.53;;;8.40;99.90;;;;;;5016307;28;20041;-69
2023/04/24 06:56:15;;;;;;;3.85;2.72;;;8.40;99.90;;;;;;5016053;28;20056;-69
2023/04/24 06:58:42;;;;;;;4.25;3.28;;;8.40;99.90;;;;;;5031387;28;20055;-69
2023/04/24 07:01:07;;;;;;;4.07;2.92;;;8.40;99.90;;;;;;5014802;28;20516;-68
2023/04/24 07:03:33;;;;;;;4.88;2.53;;;8.40;99.90;;;;;;5016214;28;20033;-68
2023/04/24 07:05:59;;;;;;;6.35;2.85;;;8.30;99.90;;;;;;4998267;28;20052;-68
2023/04/24 07:08:25;;;;;;;4.93;3.22;;;8.40;99.90;;;;;;5032806;28;20037;-68
2023/04/24 07:10:51;;;;;;;5.07;2.42;;;8.40;99.90;;;;;;5016217;28;20106;-69
2023/04/24 07:13:17;;;;;;;3.92;2.40;;;8.40;99.90;;;;;;5032482;28;20052;-68
2023/04/24 07:15:43;;;;;;;3.40;2.47;;;8.40;99.90;;;;;;5032525;28;20261;-68
2023/04/24 07:18:09;;;;;;;3.15;2.38;;;8.40;99.90;;;;;;5030616;28;20044;-69
2023/04/24 07:20:35;;;;;;;4.15;2.10;;;8.40;99.90;;;;;;5000645;28;20477;-69
2023/04/24 07:23:00;;;;;;;5.18;2.55;;;8.40;99.90;;;;;;5014692;28;21284;-68
2023/04/24 07:25:26;;;;;;;2.47;2.10;;;8.40;99.90;;;;;;5014164;28;20493;-69
2023/04/24 07:27:53;;;;;;;2.92;2.30;;;8.50;99.90;;;;;;4982565;28;20236;-69
2023/04/24 07:30:19;;;;;;;2.42;1.90;;;8.40;99.90;;;;;;5013261;28;20037;-69
2023/04/24 07:32:45;;;;;;;3.33;2.20;;;8.50;99.90;;;;;;4996835;28;20060;-68
2023/04/24 07:35:10;;;;;;;6.43;2.03;;;8.50;99.90;;;;;;4997925;28;20102;-69
2023/04/24 07:37:36;;;;;;;2.42;2.10;;;8.60;99.90;;;;;;4995465;28;20051;-68
2023/04/24 07:40:03;;;;;;;4.05;2.20;;;8.70;99.90;;;;;;5011818;28;20043;-68
2023/04/24 07:42:30;;;;;;;4.25;2.78;;;8.70;99.90;;;;;;5012034;28;20094;-69
2023/04/24 07:44:56;;;;;;;7.35;3.28;;;8.80;99.90;;;;;;4998317;28;20037;-68
2023/04/24 07:47:22;;;;;;;7.40;2.95;;;8.80;99.90;;;;;;5025903;28;20584;-68
2023/04/24 07:49:48;;;;;;;4.60;3.00;;;8.90;99.90;;;;;;5030912;28;20041;-69
2023/04/24 07:52:13;;;;;;;4.45;3.00;;;8.90;99.90;;;;;;5031253;28;20033;-69
2023/04/24 07:54:39;;;;;;;4.80;3.35;;;9.00;99.90;;;;;;5032037;28;20040;-69
2023/04/24 07:57:06;;;;;;;6.90;3.58;;;9.00;99.90;;;;;;4995090;28;20033;-69
2023/04/24 07:59:32;;;;;;;4.50;3.00;;;9.10;99.90;;;;;;5015607;28;20049;-69
2023/04/24 08:01:58;;;;;;;6.88;3.00;;;9.20;99.90;;;;;;5019688;28;20599;-69
2023/04/24 08:04:23;;;;;;;5.43;3.17;;;9.20;99.90;;;;;;5035968;28;20124;-69
2023/04/24 08:06:49;;;;;;;5.60;3.55;;;9.20;99.90;;;;;;5018407;28;20045;-69
2023/04/24 08:09:15;;;;;;;7.78;5.22;;;9.20;99.90;;;;;;5035544;28;20583;-69
2023/04/24 08:11:41;;;;;;;7.40;4.20;;;9.20;99.90;;;;;;5034500;28;20037;-68
2023/04/24 08:14:07;;;;;;;4.60;3.08;;;9.30;99.90;;;;;;5016986;28;20045;-69
2023/04/24 08:16:33;;;;;;;7.35;3.47;;;9.30;99.90;;;;;;5052638;28;20393;-69
2023/04/24 08:18:59;;;;;;;4.40;3.00;;;9.30;99.90;;;;;;5035806;28;20115;-68
2023/04/24 08:21:26;;;;;;;6.13;3.88;;;9.30;99.90;;;;;;5017151;28;20036;-68
2023/04/24 08:23:51;;;;;;;4.13;2.65;;;9.30;99.90;;;;;;5034249;28;20041;-68
2023/04/24 08:26:17;;;;;;;5.25;2.92;;;9.30;99.90;;;;;;5017829;28;20097;-68
2023/04/24 08:28:43;;;;;;;5.78;3.50;;;9.30;99.90;;;;;;5034634;28;20075;-68
2023/04/24 08:31:09;;;;;;;4.97;2.50;;;9.30;99.90;;;;;;5019231;28;20040;-68
2023/04/24 08:33:34;;;;;;;5.30;2.83;;;9.30;99.90;;;;;;5035406;28;20481;-68
2023/04/24 08:36:02;;;;;;;5.53;3.25;;;9.40;99.90;;;;;;5033712;28;20045;-68
2023/04/24 08:38:29;;;;;;;3.92;2.90;;;9.40;99.90;;;;;;5018125;28;20048;-68
2023/04/24 08:40:56;;;;;;;3.42;2.10;;;9.40;99.90;;;;;;5002887;28;20041;-68
2023/04/24 08:43:22;;;;;;;3.42;2.20;;;9.30;99.90;;;;;;5035003;28;20489;-68
2023/04/24 08:45:49;;;;;;;3.88;2.13;;;9.30;99.90;;;;;;5035388;28;20104;-68
2023/04/24 08:48:15;;;;;;;3.85;2.40;;;9.30;99.90;;;;;;5052923;28;20065;-68
2023/04/24 08:50:42;;;;;;;6.22;2.55;;;9.30;99.90;;;;;;5015668;28;20035;-69
2023/04/24 08:53:08;;;;;;;7.95;3.15;;;9.30;99.90;;;;;;5016865;28;20037;-68
2023/04/24 08:55:35;;;;;;;3.85;2.58;;;9.20;99.90;;;;;;5011567;28;20060;-68
2023/04/24 08:58:02;;;;;;;8.23;2.97;;;9.20;99.90;;;;;;5034473;28;20124;-69
2023/04/24 09:00:29;;;;;;;4.88;3.33;;;9.20;99.90;;;;;;5035032;28;20132;-69
2023/04/24 09:02:55;;;;;;;3.75;2.78;;;9.20;99.90;;;;;;5034989;28;20036;-69
2023/04/24 09:05:23;;;;;;;5.43;3.50;;;9.20;99.90;;;;;;5015142;28;20040;-69
2023/04/24 09:07:56;;;;;;;10.85;4.15;;;9.10;99.90;;;;;;5033257;28;20053;-69
2023/04/24 09:10:24;;;;;;;11.38;4.88;;;9.10;99.90;;;;;;5034818;28;20115;-69
2023/04/24 09:12:54;;;;;;;18.05;7.10;;;9.10;99.90;;;;;;5000624;28;20041;-68
2023/04/24 09:15:22;;;;;;;11.82;6.90;;;9.10;99.90;;;;;;5018453;28;20132;-69
2023/04/24 09:17:48;;;;;;;16.70;8.30;;;9.00;99.90;;;;;;5032805;28;20041;-69
2023/04/24 09:20:14;;;;;;;22.85;8.70;;;9.10;99.90;;;;;;5033602;28;20551;-69
2023/04/24 09:22:39;;;;;;;26.55;11.60;;;9.10;99.90;;;;;;5018166;28;20040;-69
2023/04/24 09:25:08;;;;;;;19.42;8.80;;;9.20;99.90;;;;;;5016065;28;20513;-69
2023/04/24 09:27:34;;;;;;;16.17;9.35;;;9.10;99.90;;;;;;5034209;28;20404;-69
2023/04/24 09:30:01;;;;;;;20.55;8.80;;;9.10;99.90;;;;;;5017885;28;20041;-69
2023/04/24 09:32:29;;;;;;;15.05;9.13;;;9.10;99.90;;;;;;5018353;28;20444;-69
2023/04/24 09:35:12;;;;;;;23.20;9.25;;;9.10;99.90;;;;;;5029971;28;20024;-69
2023/04/24 09:37:41;;;;;;;18.73;9.57;;;9.20;99.90;;;;;;5026297;28;20103;-69
2023/04/24 09:40:18;;;;;;;13.70;8.20;;;9.10;99.90;;;;;;5034386;28;20114;-69
2023/04/24 09:42:53;;;;;;;19.23;8.82;;;9.00;99.90;;;;;;5016848;28;20068;-69
2023/04/24 09:45:19;;;;;;;19.35;9.48;;;8.90;99.90;;;;;;5032231;28;20127;-69
2023/04/24 09:47:45;;;;;;;14.77;8.30;;;8.80;99.90;;;;;;5016983;28;20080;-69
2023/04/24 09:50:16;;;;;;;21.40;11.18;;;8.70;99.90;;;;;;5030283;28;20065;-69
2023/04/24 09:52:44;;;;;;;24.55;12.27;;;8.60;99.90;;;;;;5005212;28;20033;-69
2023/04/24 09:55:19;;;;;;;24.67;11.98;;;8.60;99.90;;;;;;5013348;28;20139;-69
2023/04/24 09:57:54;;;;;;;23.88;13.38;;;8.50;99.90;;;;;;5033252;28;20061;-69
2023/04/24 10:00:25;;;;;;;25.65;12.02;;;8.50;99.90;;;;;;5032969;28;20080;-69
2023/04/24 10:02:56;;;;;;;28.33;13.95;;;8.40;99.90;;;;;;5017294;28;20044;-69
2023/04/24 10:05:43;;;;;;;34.63;15.10;;;8.40;99.90;;;;;;5012267;28;20465;-68
2023/04/24 10:08:11;;;;;;;30.85;14.68;;;8.40;99.90;;;;;;5034219;28;20049;-69
2023/04/24 10:10:42;;;;;;;32.00;16.75;;;8.40;99.90;;;;;;5033434;28;20044;-69
2023/04/24 10:13:10;;;;;;;26.55;14.77;;;8.40;99.90;;;;;;5032095;28;20029;-69
2023/04/24 10:15:37;;;;;;;25.33;13.35;;;8.40;99.90;;;;;;5016997;28;20041;-68
2023/04/24 10:18:06;;;;;;;25.00;14.02;;;8.40;99.90;;;;;;5033653;28;20044;-69
2023/04/24 10:20:32;;;;;;;25.02;13.43;;;8.40;99.90;;;;;;5025144;28;20036;-69
2023/04/24 10:22:59;;;;;;;22.60;12.18;;;8.40;99.90;;;;;;5011769;28;20044;-69
2023/04/24 10:25:30;;;;;;;17.20;11.07;;;8.40;99.90;;;;;;5026310;28;20102;-69
2023/04/24 10:27:59;;;;;;;24.17;12.57;;;8.30;99.90;;;;;;5009834;28;20045;-68
2023/04/24 10:30:27;;;;;;;22.55;11.52;;;8.30;99.90;;;;;;5007565;28;20123;-69
2023/04/24 10:32:54;;;;;;;19.52;10.20;;;8.40;99.90;;;;;;5045800;28;20041;-68
2023/04/24 10:35:22;;;;;;;22.92;10.00;;;8.40;99.90;;;;;;5011190;28;20036;-69
2023/04/24 10:38:05;;;;;;;22.05;10.23;;;8.40;99.90;;;;;;5028959;28;20095;-69
2023/04/24 10:40:33;;;;;;;18.58;10.93;;;8.40;99.90;;;;;;5026218;28;20499;-69
2023/04/24 10:42:59;;;;;;;21.08;11.85;;;8.40;99.90;;;;;;5029198;28;20036;-69
2023/04/24 10:45:25;;;;;;;16.13;9.23;;;8.40;99.90;;;;;;5006857;28;20124;-69
2023/04/24 10:48:03;;;;;;;15.13;9.43;;;8.50;99.90;;;;;;5026207;28;20048;-68
2023/04/24 10:50:41;;;;;;;24.95;10.48;;;8.50;99.90;;;;;;5027372;28;20033;-68
2023/04/24 10:53:12;;;;;;;15.35;8.32;;;8.50;99.90;;;;;;5028604;28;20032;-68
2023/04/24 10:55:51;;;;;;;15.40;7.78;;;8.60;99.90;;;;;;5025432;28;20033;-68
2023/04/24 10:58:22;;;;;;;13.00;8.27;;;8.60;99.90;;;;;;5025759;28;20186;-68
2023/04/24 11:00:59;;;;;;;16.20;8.13;;;8.60;99.90;;;;;;5027888;28;20041;-68
2023/04/24 11:03:33;;;;;;;19.58;8.13;;;8.60;99.90;;;;;;5027148;28;20066;-68
2023/04/24 11:06:07;;;;;;;16.65;8.13;;;8.60;99.90;;;;;;5024806;28;20057;-68
2023/04/24 11:08:46;;;;;;;16.27;7.43;;;8.50;99.90;;;;;;5024473;28;20033;-69
2023/04/24 11:11:16;;;;;;;21.90;7.55;;;8.50;99.90;;;;;;5010540;28;20077;-69
2023/04/24 11:13:54;;;;;;;13.10;6.85;;;8.40;99.90;;;;;;5027396;28;20103;-68
2023/04/24 11:16:24;;;;;;;16.65;6.47;;;8.40;99.90;;;;;;5026783;28;20054;-68
2023/04/24 11:19:05;;;;;;;12.88;6.50;;;8.30;99.90;;;;;;5026432;28;20044;-69
2023/04/24 11:21:38;;;;;;;9.85;5.47;;;8.30;99.90;;;;;;5010847;28;20119;-68
2023/04/24 11:24:22;;;;;;;10.98;5.00;;;8.30;99.90;;;;;;5044375;28;20115;-68
2023/04/24 11:26:48;;;;;;;8.63;3.88;;;8.30;99.90;;;;;;5010442;28;20508;-68
2023/04/24 11:29:15;;;;;;;12.55;4.95;;;8.30;99.90;;;;;;5025609;28;20045;-68
2023/04/24 11:31:48;;;;;;;11.93;5.18;;;8.30;99.90;;;;;;5010400;28;20036;-69
2023/04/24 11:34:14;;;;;;;10.27;4.97;;;8.40;99.90;;;;;;5026185;28;20428;-68
2023/04/24 11:36:46;;;;;;;12.55;4.35;;;8.50;99.90;;;;;;5026729;28;20080;-68
2023/04/24 11:39:12;;;;;;;11.43;5.43;;;8.50;99.90;;;;;;5026506;28;20037;-68
2023/04/24 11:41:38;;;;;;;11.63;5.13;;;8.70;99.90;;;;;;4996116;28;20033;-68
2023/04/24 11:44:09;;;;;;;9.93;4.50;;;8.70;99.90;;;;;;4995407;28;20060;-68
2023/04/24 11:46:37;;;;;;;13.00;4.35;;;8.70;99.90;;;;;;5009816;28;20052;-68
2023/04/24 11:49:03;;;;;;;12.10;4.53;;;8.80;99.90;;;;;;4996102;28;20045;-68
2023/04/24 11:51:29;;;;;;;11.43;4.90;;;8.70;99.90;;;;;;5011474;28;20032;-68
2023/04/24 11:53:55;;;;;;;18.30;5.70;;;8.60;99.90;;;;;;4996497;28;20037;-69
2023/04/24 11:56:23;;;;;;;18.17;5.13;;;8.50;99.90;;;;;;5013485;28;20673;-68
2023/04/24 11:58:49;;;;;;;10.98;3.90;;;8.50;99.90;;;;;;4999110;28;20056;-68
2023/04/24 12:01:15;;;;;;;11.52;3.72;;;8.40;99.90;;;;;;5008820;28;20056;-68
2023/04/24 12:03:46;;;;;;;10.45;3.90;;;8.40;99.90;;;;;;4995067;28;20041;-68
2023/04/24 12:06:12;;;;;;;10.88;4.32;;;8.40;99.90;;;;;;5032592;28;20459;-68
2023/04/24 12:08:38;;;;;;;7.13;3.20;;;8.40;99.90;;;;;;5006705;28;20472;-68
2023/04/24 12:11:06;;;;;;;12.90;3.67;;;8.40;99.90;;;;;;4996361;28;20045;-68
2023/04/24 12:13:33;;;;;;;8.52;3.47;;;8.50;99.90;;;;;;5013316;28;20118;-68
2023/04/24 12:15:59;;;;;;;8.15;2.85;;;8.60;99.90;;;;;;5013220;28;20045;-69
2023/04/24 12:18:25;;;;;;;11.73;3.20;;;8.70;99.90;;;;;;4980846;28;20092;-68
2023/04/24 12:20:51;;;;;;;10.20;3.88;;;8.80;99.90;;;;;;4996744;28;20523;-69
2023/04/24 12:23:36;;;;;;;9.57;3.40;;;8.80;99.90;;;;;;4997294;28;20045;-68
2023/04/24 12:26:05;;;;;;;7.97;3.13;;;8.80;99.90;;;;;;5014459;28;20033;-68
2023/04/24 12:28:38;;;;;;;8.23;3.45;;;8.70;99.90;;;;;;5013390;28;20033;-69
2023/04/24 12:31:05;;;;;;;12.45;3.22;;;8.60;99.90;;;;;;4996388;28;20072;-69
2023/04/24 12:33:35;;;;;;;7.13;3.08;;;8.50;99.90;;;;;;4979676;28;21596;-69
2023/04/24 12:36:01;;;;;;;11.65;3.03;;;8.70;99.90;;;;;;4984655;28;20048;-68
2023/04/24 12:38:30;;;;;;;6.88;3.00;;;8.50;99.90;;;;;;5012838;28;20037;-69
2023/04/24 12:41:09;;;;;;;14.07;3.85;;;8.50;99.90;;;;;;5016342;28;20044;-69
2023/04/24 12:43:35;;;;;;;9.48;2.72;;;8.50;99.90;;;;;;5008644;28;20066;-69
2023/04/24 12:46:02;;;;;;;8.65;3.58;;;8.60;99.90;;;;;;5011554;28;20128;-69
2023/04/24 12:48:29;;;;;;;7.40;2.70;;;8.60;99.90;;;;;;5018845;28;20510;-69
2023/04/24 12:50:56;;;;;;;5.88;2.80;;;8.60;99.90;;;;;;5018664;28;20033;-68
2023/04/24 12:53:22;;;;;;;7.45;2.67;;;8.70;99.90;;;;;;5018768;28;20037;-69